createdAt,value
2019-06-20T00:00:35.378Z,8.80
2019-06-20T00:03:04.175Z,8.50
2019-06-20T00:05:32.880Z,9.03
2019-06-20T00:08:01.609Z,10.23
2019-06-20T00:10:30.538Z,9.67
2019-06-20T00:13:00.720Z,11.53
2019-06-20T00:15:29.921Z,11.33
2019-06-20T00:17:58.646Z,10.80
2019-06-20T00:20:27.277Z,11.33
2019-06-20T00:22:56.535Z,11.57
2019-06-20T00:25:25.156Z,12.00
2019-06-20T00:27:54.108Z,11.17
2019-06-20T00:30:22.789Z,11.43
2019-06-20T00:32:51.418Z,9.90
2019-06-20T00:35:20.810Z,10.03
2019-06-20T00:37:49.792Z,9.80
2019-06-20T00:40:18.625Z,9.77
2019-06-20T00:42:47.662Z,8.63
2019-06-20T00:45:16.662Z,8.83
2019-06-20T00:47:45.671Z,9.43
2019-06-20T00:50:14.427Z,8.23
2019-06-20T00:52:43.313Z,9.63
2019-06-20T00:55:12.473Z,9.17
2019-06-20T00:57:42.041Z,9.43
2019-06-20T01:00:12.191Z,8.97
2019-06-20T01:02:41.247Z,10.20
2019-06-20T01:05:10.288Z,8.43
2019-06-20T01:07:39.274Z,8.43
2019-06-20T01:10:08.375Z,8.50
2019-06-20T01:12:37.835Z,8.43
2019-06-20T01:15:07.301Z,9.00
2019-06-20T01:17:36.275Z,8.53
2019-06-20T01:20:06.625Z,10.80
2019-06-20T01:22:35.854Z,9.00
2019-06-20T01:25:05.145Z,8.47
2019-06-20T01:27:34.152Z,8.90
2019-06-20T01:30:02.907Z,8.43
2019-06-20T01:32:32.170Z,8.00
2019-06-20T01:35:01.238Z,8.27
2019-06-20T01:37:30.542Z,8.73
2019-06-20T01:39:59.633Z,7.77
2019-06-20T01:42:28.625Z,9.43
2019-06-20T01:44:57.322Z,7.97
2019-06-20T01:47:26.242Z,7.90
2019-06-20T01:49:55.505Z,7.90
2019-06-20T01:52:24.499Z,8.60
2019-06-20T01:54:53.246Z,9.20
2019-06-20T01:57:22.006Z,9.47
2019-06-20T01:59:50.720Z,9.33
2019-06-20T02:02:19.442Z,9.77
2019-06-20T02:04:48.198Z,9.47
2019-06-20T02:07:17.334Z,9.87
2019-06-20T02:09:46.382Z,9.40
2019-06-20T02:12:15.332Z,10.23
2019-06-20T02:14:44.315Z,9.00
2019-06-20T02:17:13.001Z,9.07
2019-06-20T02:19:41.686Z,9.03
2019-06-20T02:22:10.354Z,9.97
2019-06-20T02:24:39.415Z,9.83
2019-06-20T02:27:08.681Z,9.97
2019-06-20T02:29:37.664Z,10.80
2019-06-20T02:32:06.763Z,10.47
2019-06-20T02:34:35.754Z,10.97
2019-06-20T02:37:04.477Z,10.87
2019-06-20T02:39:33.847Z,10.17
2019-06-20T02:42:02.944Z,10.33
2019-06-20T02:44:32.196Z,10.77
2019-06-20T02:47:02.727Z,11.87
2019-06-20T02:49:31.480Z,12.00
2019-06-20T02:52:00.790Z,10.80
2019-06-20T02:54:29.845Z,12.00
2019-06-20T02:56:59.446Z,11.50
2019-06-20T02:59:28.497Z,11.73
2019-06-20T03:01:57.247Z,12.50
2019-06-20T03:04:26.246Z,11.13
2019-06-20T03:06:55.176Z,12.30
2019-06-20T03:09:24.125Z,11.80
2019-06-20T03:11:53.122Z,12.60
2019-06-20T03:14:22.057Z,11.43
2019-06-20T03:16:51.050Z,12.13
2019-06-20T03:19:20.099Z,11.47
2019-06-20T03:21:48.835Z,10.50
2019-06-20T03:24:18.192Z,10.93
2019-06-20T03:26:47.189Z,10.67
2019-06-20T03:29:16.279Z,11.40
2019-06-20T03:31:45.283Z,11.17
2019-06-20T03:34:14.268Z,11.20
2019-06-20T03:36:43.572Z,11.90
2019-06-20T03:39:12.362Z,11.53
2019-06-20T03:41:41.020Z,11.60
2019-06-20T03:44:10.142Z,11.33
2019-06-20T03:46:39.198Z,10.23
2019-06-20T03:49:08.240Z,10.53
2019-06-20T03:51:37.226Z,10.30
2019-06-20T03:54:05.970Z,10.67
2019-06-20T03:56:34.776Z,10.20
2019-06-20T03:59:03.816Z,10.37
2019-06-20T04:01:33.094Z,9.70
2019-06-20T04:04:02.095Z,10.93
2019-06-20T04:06:30.897Z,10.03
2019-06-20T04:08:59.977Z,10.00
2019-06-20T04:11:28.606Z,10.27
2019-06-20T04:13:57.631Z,9.83
2019-06-20T04:16:26.655Z,10.27
2019-06-20T04:18:55.989Z,9.60
2019-06-20T04:21:25.047Z,9.53
2019-06-20T04:23:53.724Z,9.73
2019-06-20T04:26:22.635Z,10.20
2019-06-20T04:28:51.679Z,8.83
2019-06-20T04:31:20.613Z,9.40
2019-06-20T04:33:49.706Z,9.40
2019-06-20T04:36:18.469Z,10.47
2019-06-20T04:38:47.059Z,9.20
2019-06-20T04:41:16.155Z,10.03
2019-06-20T04:43:45.473Z,9.20
2019-06-20T04:46:21.334Z,8.90
2019-06-20T04:48:50.049Z,8.90
2019-06-20T04:51:19.427Z,9.00
2019-06-20T04:53:48.518Z,8.60
2019-06-20T04:56:17.464Z,8.63
2019-06-20T04:58:46.127Z,8.13
2019-06-20T05:01:15.201Z,8.13
2019-06-20T05:03:43.905Z,7.90
2019-06-20T05:06:12.652Z,7.20
2019-06-20T05:08:41.768Z,7.80
2019-06-20T05:11:11.072Z,7.77
2019-06-20T05:13:40.515Z,8.27
2019-06-20T05:16:09.469Z,7.63
2019-06-20T05:18:38.558Z,6.53
2019-06-20T05:21:08.298Z,7.87
2019-06-20T05:23:37.059Z,6.83
2019-06-20T05:26:06.264Z,6.93
2019-06-20T05:28:36.174Z,7.30
2019-06-20T05:31:05.398Z,6.17
2019-06-20T05:33:34.364Z,5.07
2019-06-20T05:36:03.871Z,5.10
2019-06-20T05:38:32.866Z,4.70
2019-06-20T05:41:01.706Z,4.60
2019-06-20T05:43:30.399Z,4.10
2019-06-20T05:46:08.918Z,4.73
2019-06-20T05:48:30.169Z,4.53
2019-06-20T05:50:59.297Z,4.60
2019-06-20T05:53:28.918Z,5.17
2019-06-20T05:55:57.739Z,4.40
2019-06-20T05:58:26.438Z,4.63
2019-06-20T06:00:55.237Z,4.57
2019-06-20T06:03:24.341Z,4.30
2019-06-20T06:05:54.602Z,4.40
2019-06-20T06:08:23.760Z,4.10
2019-06-20T06:10:52.544Z,4.07
2019-06-20T06:13:21.229Z,3.90
2019-06-20T06:15:49.965Z,3.73
2019-06-20T06:18:18.746Z,2.83
2019-06-20T06:20:47.702Z,3.43
2019-06-20T06:23:16.371Z,3.30
2019-06-20T06:25:45.485Z,3.37
2019-06-20T06:28:14.268Z,3.93
2019-06-20T06:30:43.433Z,3.47
2019-06-20T06:33:12.214Z,3.50
2019-06-20T06:35:41.809Z,3.67
2019-06-20T06:38:11.205Z,3.67
2019-06-20T06:40:40.787Z,4.00
2019-06-20T06:43:09.788Z,3.60
2019-06-20T06:45:38.589Z,4.23
2019-06-20T06:48:07.570Z,4.33
2019-06-20T06:50:36.280Z,3.87
2019-06-20T06:53:05.353Z,4.73
2019-06-20T06:55:34.450Z,4.33
2019-06-20T06:58:03.084Z,4.27
2019-06-20T07:00:31.865Z,4.70
2019-06-20T07:03:00.547Z,4.10
2019-06-20T07:05:29.499Z,4.27
2019-06-20T07:07:58.156Z,4.33
2019-06-20T07:10:26.902Z,4.30
2019-06-20T07:12:55.763Z,4.20
2019-06-20T07:15:24.713Z,4.30
2019-06-20T07:17:53.394Z,3.90
2019-06-20T07:20:23.255Z,4.43
2019-06-20T07:22:52.655Z,4.00
2019-06-20T07:25:22.263Z,4.00
2019-06-20T07:27:51.325Z,4.50
2019-06-20T07:30:20.867Z,4.30
2019-06-20T07:32:49.655Z,4.43
2019-06-20T07:35:18.776Z,4.40
2019-06-20T07:37:47.752Z,4.97
2019-06-20T07:40:18.402Z,4.37
2019-06-20T07:42:47.678Z,5.30
2019-06-20T07:45:18.586Z,5.03
2019-06-20T07:47:47.917Z,4.90
2019-06-20T07:50:16.675Z,6.43
2019-06-20T07:53:00.929Z,4.77
2019-06-20T07:55:16.128Z,4.23
2019-06-20T07:57:45.280Z,4.50
2019-06-20T08:00:14.276Z,4.20
2019-06-20T08:02:43.315Z,3.93
2019-06-20T08:05:13.332Z,3.70
2019-06-20T08:07:42.641Z,3.80
2019-06-20T08:10:12.680Z,4.30
2019-06-20T08:12:41.849Z,3.67
2019-06-20T08:15:15.474Z,3.97
2019-06-20T08:17:42.280Z,4.47
2019-06-20T08:20:11.559Z,4.20
2019-06-20T08:22:40.693Z,3.87
2019-06-20T08:25:09.966Z,3.77
2019-06-20T08:27:51.994Z,3.57
2019-06-20T08:30:29.624Z,3.77
2019-06-20T08:33:01.310Z,3.60
2019-06-20T08:35:30.776Z,4.10
2019-06-20T08:38:01.286Z,3.73
2019-06-20T08:40:32.321Z,3.83
2019-06-20T08:43:02.154Z,3.40
2019-06-20T08:45:32.474Z,3.60
2019-06-20T08:48:02.665Z,3.67
2019-06-20T08:50:32.317Z,3.50
2019-06-20T08:53:01.941Z,3.70
2019-06-20T08:55:31.402Z,3.70
2019-06-20T08:58:01.640Z,3.70
2019-06-20T09:00:31.659Z,3.90
2019-06-20T09:03:00.642Z,4.10
2019-06-20T09:05:30.890Z,4.10
2019-06-20T09:10:40.723Z,4.30
2019-06-20T09:13:11.238Z,4.30
2019-06-20T09:15:40.059Z,4.43
2019-06-20T09:18:09.391Z,4.33
2019-06-20T09:20:38.266Z,4.00
2019-06-20T09:23:07.053Z,3.37
2019-06-20T09:25:36.543Z,3.57
2019-06-20T09:28:06.526Z,3.53
2019-06-20T09:30:36.495Z,3.80
2019-06-20T09:33:06.078Z,3.63
2019-06-20T09:35:35.298Z,3.73
2019-06-20T09:38:04.578Z,4.10
2019-06-20T09:40:33.676Z,3.77
2019-06-20T09:43:03.006Z,3.87
2019-06-20T09:45:32.171Z,3.60
2019-06-20T09:48:02.536Z,4.07
2019-06-20T09:50:31.534Z,4.07
2019-06-20T09:53:00.980Z,3.60
2019-06-20T09:55:29.840Z,3.30
2019-06-20T09:57:58.915Z,3.63
2019-06-20T10:00:28.605Z,4.43
2019-06-20T10:02:57.874Z,4.10
2019-06-20T10:05:27.130Z,3.57
2019-06-20T10:07:56.719Z,4.17
2019-06-20T10:10:29.788Z,4.53
2019-06-20T10:12:58.883Z,3.90
2019-06-20T10:15:28.798Z,4.20
2019-06-20T10:17:58.027Z,4.47
2019-06-20T10:20:27.911Z,4.10
2019-06-20T10:22:57.498Z,4.67
2019-06-20T10:25:26.736Z,4.30
2019-06-20T10:27:55.538Z,4.07
2019-06-20T10:30:25.626Z,4.30
2019-06-20T10:32:54.724Z,4.60
2019-06-20T10:35:23.547Z,4.47
2019-06-20T10:37:54.761Z,4.30
2019-06-20T10:40:25.813Z,4.70
2019-06-20T10:42:54.636Z,4.70
2019-06-20T10:45:25.343Z,4.97
2019-06-20T10:47:54.531Z,4.10
2019-06-20T10:50:24.508Z,4.23
2019-06-20T10:52:53.849Z,4.07
2019-06-20T10:55:22.857Z,3.90
2019-06-20T10:57:52.126Z,3.80
2019-06-20T11:00:30.893Z,4.13
2019-06-20T11:02:53.682Z,4.00
2019-06-20T11:05:23.013Z,5.10
2019-06-20T11:07:51.928Z,5.10
2019-06-20T11:10:21.514Z,6.03
2019-06-20T11:12:55.826Z,5.93
2019-06-20T11:15:22.727Z,5.73
2019-06-20T11:17:51.406Z,6.30
2019-06-20T11:20:20.766Z,5.90
2019-06-20T11:22:49.957Z,5.63
2019-06-20T11:25:20.494Z,6.00
2019-06-20T11:27:49.225Z,8.10
2019-06-20T11:30:18.451Z,9.43
2019-06-20T11:32:48.725Z,10.47
2019-06-20T11:35:18.116Z,11.23
2019-06-20T11:37:47.335Z,12.00
2019-06-20T11:40:16.770Z,10.97
2019-06-20T11:42:46.990Z,11.20
2019-06-20T11:45:16.315Z,10.90
2019-06-20T11:47:45.092Z,11.93
2019-06-20T11:50:14.322Z,11.77
2019-06-20T11:52:45.634Z,12.00
2019-06-20T11:55:15.572Z,12.23
2019-06-20T11:57:44.568Z,11.83
2019-06-20T12:00:13.633Z,11.13
2019-06-20T12:02:44.061Z,13.37
2019-06-20T12:05:14.265Z,12.93
2019-06-20T12:07:45.336Z,12.13
2019-06-20T12:10:14.466Z,14.87
2019-06-20T12:12:44.720Z,14.40
2019-06-20T12:15:13.904Z,13.63
2019-06-20T12:17:43.788Z,14.83
2019-06-20T12:20:14.339Z,14.40
2019-06-20T12:22:44.919Z,14.17
2019-06-20T12:25:19.015Z,12.93
2019-06-20T12:27:49.602Z,13.20
2019-06-20T12:30:19.525Z,13.70
2019-06-20T12:32:49.343Z,14.83
2019-06-20T12:35:19.026Z,13.43
2019-06-20T12:37:49.806Z,13.73
2019-06-20T12:40:19.233Z,13.13
2019-06-20T12:42:49.289Z,13.30
2019-06-20T12:45:19.042Z,12.97
2019-06-20T12:47:48.010Z,11.53
2019-06-20T12:50:17.824Z,11.10
2019-06-20T12:52:47.645Z,10.93
2019-06-20T12:55:17.247Z,11.20
2019-06-20T12:57:46.583Z,11.73
2019-06-20T13:00:18.394Z,10.93
2019-06-20T13:02:47.556Z,11.00
2019-06-20T13:05:17.524Z,11.70
2019-06-20T13:07:47.237Z,11.40
2019-06-20T13:10:17.658Z,10.13
2019-06-20T13:12:46.538Z,10.00
2019-06-20T13:15:15.615Z,9.93
2019-06-20T13:17:45.053Z,10.27
2019-06-20T13:20:14.968Z,10.17
2019-06-20T13:22:44.808Z,10.00
2019-06-20T13:25:14.029Z,10.00
2019-06-20T13:27:43.541Z,9.77
2019-06-20T13:30:14.130Z,10.60
2019-06-20T13:32:44.982Z,11.60
2019-06-20T13:35:14.456Z,11.20
2019-06-20T13:37:43.864Z,11.63
2019-06-20T13:40:14.559Z,11.13
2019-06-20T13:42:44.135Z,11.30
2019-06-20T13:45:24.369Z,11.87
2019-06-20T13:47:53.560Z,13.10
2019-06-20T13:50:23.389Z,12.53
2019-06-20T13:52:52.279Z,12.93
2019-06-20T13:55:21.305Z,14.47
2019-06-20T13:57:50.599Z,15.50
2019-06-20T14:00:21.010Z,14.37
2019-06-20T14:02:51.541Z,13.67
2019-06-20T14:05:20.908Z,13.10
2019-06-20T14:07:53.494Z,11.97
2019-06-20T14:10:21.324Z,11.60
2019-06-20T14:12:49.989Z,12.87
2019-06-20T14:15:19.225Z,10.00
2019-06-20T14:17:49.653Z,9.00
2019-06-20T14:20:18.946Z,8.70
2019-06-20T14:22:49.407Z,8.47
2019-06-20T14:25:19.873Z,9.47
2019-06-20T14:27:49.180Z,9.50
2019-06-20T14:30:18.458Z,9.73
2019-06-20T14:32:47.284Z,11.13
2019-06-20T14:35:17.646Z,9.90
2019-06-20T14:37:47.829Z,9.53
2019-06-20T14:40:17.787Z,9.73
2019-06-20T14:42:47.928Z,10.73
2019-06-20T14:45:19.361Z,11.27
2019-06-20T14:47:48.463Z,10.20
2019-06-20T14:50:17.728Z,9.43
2019-06-20T14:52:48.557Z,9.17
2019-06-20T14:55:17.302Z,8.60
2019-06-20T14:57:46.985Z,9.00
2019-06-20T15:00:16.908Z,9.57
2019-06-20T15:02:47.656Z,8.37
2019-06-20T15:05:18.146Z,7.33
2019-06-20T15:07:49.453Z,7.47
2019-06-20T15:10:18.515Z,7.00
2019-06-20T15:12:49.857Z,6.40
2019-06-20T15:15:19.015Z,8.43
2019-06-20T15:17:51.416Z,6.70
2019-06-20T15:20:19.308Z,5.23
2019-06-20T15:22:49.251Z,5.60
2019-06-20T15:25:19.338Z,5.23
2019-06-20T15:27:50.267Z,5.97
2019-06-20T15:30:21.850Z,5.37
2019-06-20T15:33:01.852Z,5.33
2019-06-20T15:35:21.285Z,5.63
2019-06-20T15:37:51.504Z,5.47
2019-06-20T15:40:20.882Z,5.47
2019-06-20T15:42:51.554Z,5.17
2019-06-20T15:45:21.730Z,5.53
2019-06-20T15:47:50.808Z,5.73
2019-06-20T15:50:19.605Z,5.47
2019-06-20T15:52:48.713Z,5.40
2019-06-20T15:55:19.911Z,6.30
2019-06-20T15:57:49.225Z,5.67
2019-06-20T16:00:18.582Z,5.30
2019-06-20T16:02:49.864Z,5.70
2019-06-20T16:05:19.215Z,5.13
2019-06-20T16:07:48.624Z,5.10
2019-06-20T16:10:17.922Z,5.03
2019-06-20T16:12:46.713Z,5.20
2019-06-20T16:15:20.838Z,5.00
2019-06-20T16:17:49.597Z,5.73
2019-06-20T16:20:18.764Z,5.33
2019-06-20T16:22:47.618Z,5.43
2019-06-20T16:25:17.202Z,6.10
2019-06-20T16:27:46.319Z,5.67
2019-06-20T16:30:15.282Z,6.50
2019-06-20T16:32:44.407Z,5.97
2019-06-20T16:35:13.765Z,6.53
2019-06-20T16:37:42.893Z,6.53
2019-06-20T16:40:12.206Z,7.07
2019-06-20T16:42:41.253Z,6.40
2019-06-20T16:45:11.669Z,6.50
2019-06-20T16:47:40.667Z,6.20
2019-06-20T16:50:09.728Z,5.90
2019-06-20T16:52:38.913Z,7.10
2019-06-20T16:55:09.342Z,6.80
2019-06-20T16:57:38.431Z,6.80
2019-06-20T17:00:07.734Z,6.77
2019-06-20T17:02:36.834Z,6.47
2019-06-20T17:05:06.190Z,6.83
2019-06-20T17:07:34.945Z,6.90
2019-06-20T17:10:03.748Z,6.53
2019-06-20T17:12:32.474Z,6.03
2019-06-20T17:15:01.468Z,7.17
2019-06-20T17:17:30.228Z,6.83
2019-06-20T17:19:59.374Z,8.07
2019-06-20T17:22:28.780Z,7.33
2019-06-20T17:24:57.696Z,7.10
2019-06-20T17:27:26.669Z,6.83
2019-06-20T17:29:56.085Z,6.93
2019-06-20T17:32:24.744Z,7.33
2019-06-20T17:34:53.407Z,7.57
2019-06-20T17:37:22.177Z,7.27
2019-06-20T17:39:51.144Z,7.77
2019-06-20T17:42:20.098Z,7.60
2019-06-20T17:44:48.908Z,7.97
2019-06-20T17:47:17.907Z,7.40
2019-06-20T17:49:46.994Z,7.70
2019-06-20T17:52:15.985Z,6.23
2019-06-20T17:54:44.783Z,7.60
2019-06-20T17:57:13.564Z,8.10
2019-06-20T17:59:42.975Z,7.20
2019-06-20T18:02:11.858Z,7.60
2019-06-20T18:04:40.517Z,8.00
2019-06-20T18:07:09.188Z,7.67
2019-06-20T18:09:38.259Z,6.93
2019-06-20T18:12:07.251Z,7.00
2019-06-20T18:14:36.110Z,6.07
2019-06-20T18:17:04.877Z,6.53
2019-06-20T18:19:34.212Z,6.70
2019-06-20T18:22:02.982Z,6.63
2019-06-20T18:24:31.681Z,7.53
2019-06-20T18:27:00.472Z,7.90
2019-06-20T18:29:29.353Z,8.00
2019-06-20T18:31:58.482Z,7.83
2019-06-20T18:34:30.281Z,8.93
2019-06-20T18:36:58.419Z,8.87
2019-06-20T18:39:27.814Z,8.13
2019-06-20T18:41:57.208Z,8.40
2019-06-20T18:44:26.398Z,9.50
2019-06-20T18:46:55.142Z,9.17
2019-06-20T18:49:24.186Z,8.77
2019-06-20T18:51:52.964Z,8.80
2019-06-20T18:54:21.748Z,9.83
2019-06-20T18:56:50.971Z,10.40
2019-06-20T18:59:19.836Z,9.50
2019-06-20T19:01:48.608Z,9.53
2019-06-20T19:04:17.376Z,10.70
2019-06-20T19:06:46.414Z,10.40
2019-06-20T19:09:15.858Z,9.70
2019-06-20T19:11:45.118Z,10.57
2019-06-20T19:14:14.426Z,10.53
2019-06-20T19:16:43.141Z,11.30
2019-06-20T19:19:12.220Z,10.73
2019-06-20T19:21:41.321Z,12.10
2019-06-20T19:24:10.525Z,10.03
2019-06-20T19:26:39.240Z,11.30
2019-06-20T19:29:08.023Z,10.77
2019-06-20T19:31:36.667Z,10.67
2019-06-20T19:34:05.762Z,12.17
2019-06-20T19:36:34.863Z,17.13
2019-06-20T19:39:05.898Z,11.20
2019-06-20T19:41:34.689Z,10.63
2019-06-20T19:44:03.377Z,12.50
2019-06-20T19:46:32.472Z,10.83
2019-06-20T19:49:01.246Z,11.20
2019-06-20T19:51:30.031Z,11.30
2019-06-20T19:53:59.195Z,11.47
2019-06-20T19:56:28.333Z,10.97
2019-06-20T19:58:57.137Z,12.00
2019-06-20T20:01:26.233Z,11.07
2019-06-20T20:03:55.073Z,10.40
2019-06-20T20:06:24.113Z,11.63
2019-06-20T20:08:53.108Z,10.43
2019-06-20T20:11:21.846Z,10.07
2019-06-20T20:13:50.902Z,9.80
2019-06-20T20:16:20.088Z,10.70
2019-06-20T20:18:49.429Z,11.17
2019-06-20T20:21:18.163Z,10.80
2019-06-20T20:23:47.697Z,11.77
2019-06-20T20:26:16.796Z,12.37
2019-06-20T20:28:45.900Z,11.70
2019-06-20T20:31:14.868Z,12.37
2019-06-20T20:33:43.655Z,14.13
2019-06-20T20:36:24.515Z,14.97
2019-06-20T20:38:43.289Z,13.23
2019-06-20T20:41:12.053Z,13.87
2019-06-20T20:43:41.189Z,13.33
2019-06-20T20:46:10.010Z,13.37
2019-06-20T20:48:38.699Z,15.80
2019-06-20T20:51:07.681Z,14.70
2019-06-20T20:53:36.742Z,14.07
2019-06-20T20:56:05.841Z,13.27
2019-06-20T20:58:34.552Z,14.57
2019-06-20T21:01:10.923Z,15.47
2019-06-20T21:03:40.077Z,15.77
2019-06-20T21:06:09.379Z,16.97
2019-06-20T21:08:38.478Z,16.70
2019-06-20T21:11:07.573Z,15.87
2019-06-20T21:13:36.475Z,17.67
2019-06-20T21:16:05.268Z,17.30
2019-06-20T21:18:34.356Z,17.80
2019-06-20T21:21:03.153Z,17.10
2019-06-20T21:23:32.139Z,18.03
2019-06-20T21:26:00.801Z,19.00
2019-06-20T21:28:29.767Z,17.90
2019-06-20T21:30:58.516Z,18.33
2019-06-20T21:33:27.504Z,18.13
2019-06-20T21:36:07.890Z,18.43
2019-06-20T21:38:27.107Z,18.67
2019-06-20T21:40:55.738Z,19.33
2019-06-20T21:43:24.413Z,18.07
2019-06-20T21:45:53.709Z,19.77
2019-06-20T21:48:22.686Z,14.77
2019-06-20T21:50:51.518Z,16.97
2019-06-20T21:53:41.224Z,16.30
2019-06-20T21:56:10.666Z,17.50
2019-06-20T21:58:40.063Z,18.10
2019-06-20T22:01:09.676Z,17.47
2019-06-20T22:03:38.782Z,16.23
2019-06-20T22:06:22.691Z,17.00
2019-06-20T22:08:38.564Z,15.03
2019-06-20T22:11:07.619Z,16.50
2019-06-20T22:13:36.589Z,14.03
2019-06-20T22:16:05.501Z,15.80
2019-06-20T22:18:34.475Z,14.30
2019-06-20T22:21:03.222Z,15.83
2019-06-20T22:23:32.008Z,16.80
2019-06-20T22:26:01.144Z,17.00
2019-06-20T22:28:29.958Z,17.20
2019-06-20T22:30:58.934Z,17.07
2019-06-20T22:33:28.247Z,17.90
2019-06-20T22:35:57.014Z,17.47
2019-06-20T22:38:25.827Z,18.13
2019-06-20T22:40:54.460Z,17.40
2019-06-20T22:43:23.488Z,16.93
2019-06-20T22:45:52.304Z,17.50
2019-06-20T22:48:20.976Z,18.90
2019-06-20T22:50:49.808Z,19.93
2019-06-20T22:53:18.644Z,19.33
2019-06-20T22:55:47.637Z,19.37
2019-06-20T22:58:16.732Z,20.33
2019-06-20T23:00:45.448Z,18.23
2019-06-20T23:03:14.430Z,20.33
2019-06-20T23:05:43.509Z,20.97
2019-06-20T23:08:12.912Z,20.43
2019-06-20T23:10:41.719Z,19.63
2019-06-20T23:13:10.511Z,20.53
2019-06-20T23:15:39.371Z,20.60
2019-06-20T23:18:08.062Z,20.93
2019-06-20T23:20:37.372Z,21.10
2019-06-20T23:23:06.079Z,24.30
2019-06-20T23:25:36.121Z,24.40
2019-06-20T23:28:05.272Z,22.57
2019-06-20T23:30:34.063Z,23.77
2019-06-20T23:33:02.676Z,20.97
2019-06-20T23:35:31.647Z,19.87
2019-06-20T23:38:00.735Z,18.43
2019-06-20T23:40:29.825Z,20.73
2019-06-20T23:42:59.028Z,19.87
2019-06-20T23:45:28.025Z,20.43
2019-06-20T23:47:56.837Z,20.60
2019-06-20T23:50:26.114Z,21.27
2019-06-20T23:53:02.902Z,24.50
2019-06-20T23:55:32.394Z,26.47
2019-06-20T23:58:01.806Z,26.10
